sensor_id;sensor_type;location;lat;lon;timestamp;pressure;altitude;pressure_sealevel;temperature
12430;BMP280;6279;42.192;24.326;2023-11-21T00:01:26;98919.91;;;7.14
12430;BMP280;6279;42.192;24.326;2023-11-21T00:03:51;98918.81;;;7.17
12430;BMP280;6279;42.192;24.326;2023-11-21T00:06:20;98917.03;;;7.17
12430;BMP280;6279;42.192;24.326;2023-11-21T00:08:45;98912.53;;;7.02
12430;BMP280;6279;42.192;24.326;2023-11-21T00:11:11;98917.75;;;7.10
12430;BMP280;6279;42.192;24.326;2023-11-21T00:13:36;98912.44;;;7.11
12430;BMP280;6279;42.192;24.326;2023-11-21T00:16:03;98911.41;;;7.04
12430;BMP280;6279;42.192;24.326;2023-11-21T00:18:29;98911.63;;;6.94
12430;BMP280;6279;42.192;24.326;2023-11-21T00:20:55;98908.22;;;7.10
12430;BMP280;6279;42.192;24.326;2023-11-21T00:23:20;98911.31;;;7.14
12430;BMP280;6279;42.192;24.326;2023-11-21T00:25:45;98911.94;;;7.08
12430;BMP280;6279;42.192;24.326;2023-11-21T00:28:11;98915.69;;;7.13
12430;BMP280;6279;42.192;24.326;2023-11-21T00:30:36;98916.38;;;7.15
12430;BMP280;6279;42.192;24.326;2023-11-21T00:33:01;98919.31;;;7.03
12430;BMP280;6279;42.192;24.326;2023-11-21T00:35:27;98924.03;;;7.07
12430;BMP280;6279;42.192;24.326;2023-11-21T00:37:52;98919.91;;;7.14
12430;BMP280;6279;42.192;24.326;2023-11-21T00:40:18;98923.28;;;7.15
12430;BMP280;6279;42.192;24.326;2023-11-21T00:42:46;98927.13;;;6.94
12430;BMP280;6279;42.192;24.326;2023-11-21T00:45:12;98927.00;;;6.95
12430;BMP280;6279;42.192;24.326;2023-11-21T00:47:37;98926.94;;;7.04
12430;BMP280;6279;42.192;24.326;2023-11-21T00:50:04;98920.28;;;7.02
12430;BMP280;6279;42.192;24.326;2023-11-21T00:52:31;98918.72;;;6.92
12430;BMP280;6279;42.192;24.326;2023-11-21T00:54:56;98912.72;;;6.91
12430;BMP280;6279;42.192;24.326;2023-11-21T00:57:24;98918.41;;;6.95
12430;BMP280;6279;42.192;24.326;2023-11-21T00:59:50;98921.59;;;6.89
12430;BMP280;6279;42.192;24.326;2023-11-21T01:02:15;98913.94;;;6.79
12430;BMP280;6279;42.192;24.326;2023-11-21T01:04:40;98907.94;;;6.96
12430;BMP280;6279;42.192;24.326;2023-11-21T01:07:06;98905.88;;;7.00
12430;BMP280;6279;42.192;24.326;2023-11-21T01:09:31;98901.59;;;6.91
12430;BMP280;6279;42.192;24.326;2023-11-21T01:11:57;98912.72;;;6.91
12430;BMP280;6279;42.192;24.326;2023-11-21T01:14:25;98911.41;;;7.04
12430;BMP280;6279;42.192;24.326;2023-11-21T01:16:52;98908.22;;;6.93
12430;BMP280;6279;42.192;24.326;2023-11-21T01:19:17;98914.13;;;6.86
12430;BMP280;6279;42.192;24.326;2023-11-21T01:21:44;98914.72;;;6.97
12430;BMP280;6279;42.192;24.326;2023-11-21T01:24:09;98909.44;;;6.99
12430;BMP280;6279;42.192;24.326;2023-11-21T01:26:35;98902.47;;;6.82
12430;BMP280;6279;42.192;24.326;2023-11-21T01:29:01;98909.56;;;6.80
12430;BMP280;6279;42.192;24.326;2023-11-21T01:31:26;98897.00;;;6.85
12430;BMP280;6279;42.192;24.326;2023-11-21T01:33:55;98907.06;;;6.88
12430;BMP280;6279;42.192;24.326;2023-11-21T01:36:20;98901.81;;;6.80
12430;BMP280;6279;42.192;24.326;2023-11-21T01:38:46;98900.84;;;6.81
12430;BMP280;6279;42.192;24.326;2023-11-21T01:41:14;98907.34;;;6.85
12430;BMP280;6279;42.192;24.326;2023-11-21T01:43:40;98907.19;;;6.86
12430;BMP280;6279;42.192;24.326;2023-11-21T01:46:06;98903.28;;;6.65
12430;BMP280;6279;42.192;24.326;2023-11-21T01:48:32;98902.00;;;6.69
12430;BMP280;6279;42.192;24.326;2023-11-21T01:50:58;98895.06;;;6.70
12430;BMP280;6279;42.192;24.326;2023-11-21T01:53:25;98891.50;;;6.54
12430;BMP280;6279;42.192;24.326;2023-11-21T01:55:51;98901.94;;;6.35
12430;BMP280;6279;42.192;24.326;2023-11-21T01:58:17;98902.72;;;6.45
12430;BMP280;6279;42.192;24.326;2023-11-21T02:00:42;98894.66;;;6.48
12430;BMP280;6279;42.192;24.326;2023-11-21T02:03:08;98892.56;;;6.34
12430;BMP280;6279;42.192;24.326;2023-11-21T02:05:35;98887.84;;;6.30
12430;BMP280;6279;42.192;24.326;2023-11-21T02:08:02;98884.50;;;6.46
12430;BMP280;6279;42.192;24.326;2023-11-21T02:10:28;98880.44;;;6.44
12430;BMP280;6279;42.192;24.326;2023-11-21T02:12:54;98876.03;;;6.27
12430;BMP280;6279;42.192;24.326;2023-11-21T02:15:22;98876.19;;;6.26
12430;BMP280;6279;42.192;24.326;2023-11-21T02:17:49;98871.41;;;6.21
12430;BMP280;6279;42.192;24.326;2023-11-21T02:20:20;98872.38;;;6.20
12430;BMP280;6279;42.192;24.326;2023-11-21T02:22:56;98881.00;;;6.12
12430;BMP280;6279;42.192;24.326;2023-11-21T02:27:51;98874.97;;;6.20
12430;BMP280;6279;42.192;24.326;2023-11-21T02:30:16;98877.34;;;6.05
12430;BMP280;6279;42.192;24.326;2023-11-21T02:32:42;98878.00;;;6.07
12430;BMP280;6279;42.192;24.326;2023-11-21T02:35:08;98877.06;;;6.08
12430;BMP280;6279;42.192;24.326;2023-11-21T02:37:34;98885.50;;;6.00
12430;BMP280;6279;42.192;24.326;2023-11-21T02:40:01;98889.63;;;5.93
12430;BMP280;6279;42.192;24.326;2023-11-21T02:42:29;98882.44;;;5.88
12430;BMP280;6279;42.192;24.326;2023-11-21T02:44:54;98880.78;;;5.96
12430;BMP280;6279;42.192;24.326;2023-11-21T02:47:20;98887.94;;;6.02
12430;BMP280;6279;42.192;24.326;2023-11-21T02:49:45;98890.44;;;5.94
12430;BMP280;6279;42.192;24.326;2023-11-21T02:52:10;98898.47;;;5.91
12430;BMP280;6279;42.192;24.326;2023-11-21T02:54:37;98891.78;;;5.98
12430;BMP280;6279;42.192;24.326;2023-11-21T02:57:03;98895.66;;;5.75
12430;BMP280;6279;42.192;24.326;2023-11-21T02:59:28;98898.78;;;5.69
12430;BMP280;6279;42.192;24.326;2023-11-21T03:01:54;98899.16;;;5.84
12430;BMP280;6279;42.192;24.326;2023-11-21T03:04:19;98903.22;;;5.86
12430;BMP280;6279;42.192;24.326;2023-11-21T03:06:46;98898.63;;;5.80
12430;BMP280;6279;42.192;24.326;2023-11-21T03:09:11;98904.63;;;5.71
12430;BMP280;6279;42.192;24.326;2023-11-21T03:11:39;98908.16;;;5.70
12430;BMP280;6279;42.192;24.326;2023-11-21T03:14:05;98903.53;;;5.65
12430;BMP280;6279;42.192;24.326;2023-11-21T03:16:32;98902.56;;;5.66
12430;BMP280;6279;42.192;24.326;2023-11-21T03:18:57;98903.00;;;5.70
12430;BMP280;6279;42.192;24.326;2023-11-21T03:21:27;98900.56;;;5.60
12430;BMP280;6279;42.192;24.326;2023-11-21T03:23:54;98909.28;;;5.40
12430;BMP280;6279;42.192;24.326;2023-11-21T03:26:19;98913.06;;;5.55
12430;BMP280;6279;42.192;24.326;2023-11-21T03:28:45;98908.44;;;5.49
12430;BMP280;6279;42.192;24.326;2023-11-21T03:31:11;98927.31;;;5.40
12430;BMP280;6279;42.192;24.326;2023-11-21T03:33:36;98924.47;;;5.43
12430;BMP280;6279;42.192;24.326;2023-11-21T03:36:02;98918.22;;;5.46
12430;BMP280;6279;42.192;24.326;2023-11-21T03:38:29;98929.34;;;5.46
12430;BMP280;6279;42.192;24.326;2023-11-21T03:40:54;98926.38;;;5.32
12430;BMP280;6279;42.192;24.326;2023-11-21T03:43:19;98922.41;;;5.46
12430;BMP280;6279;42.192;24.326;2023-11-21T03:45:45;98926.38;;;5.41
12430;BMP280;6279;42.192;24.326;2023-11-21T03:48:12;98936.41;;;5.35
12430;BMP280;6279;42.192;24.326;2023-11-21T03:50:38;98931.81;;;5.38
12430;BMP280;6279;42.192;24.326;2023-11-21T03:53:04;98913.91;;;5.37
12430;BMP280;6279;42.192;24.326;2023-11-21T03:55:29;98912.66;;;5.31
12430;BMP280;6279;42.192;24.326;2023-11-21T03:57:56;98911.56;;;5.34
12430;BMP280;6279;42.192;24.326;2023-11-21T04:00:22;98902.84;;;5.53
12430;BMP280;6279;42.192;24.326;2023-11-21T04:02:49;98908.69;;;5.65
12430;BMP280;6279;42.192;24.326;2023-11-21T04:05:16;98910.31;;;5.66
12430;BMP280;6279;42.192;24.326;2023-11-21T04:07:42;98911.16;;;5.75
12430;BMP280;6279;42.192;24.326;2023-11-21T04:10:08;98914.94;;;5.81
12430;BMP280;6279;42.192;24.326;2023-11-21T04:12:37;98917.34;;;5.82
12430;BMP280;6279;42.192;24.326;2023-11-21T04:15:03;98928.72;;;5.89
12430;BMP280;6279;42.192;24.326;2023-11-21T04:17:28;98937.34;;;5.80
12430;BMP280;6279;42.192;24.326;2023-11-21T04:19:54;98945.22;;;5.79
12430;BMP280;6279;42.192;24.326;2023-11-21T04:22:20;98948.75;;;5.68
12430;BMP280;6279;42.192;24.326;2023-11-21T04:24:45;98952.44;;;5.75
12430;BMP280;6279;42.192;24.326;2023-11-21T04:27:11;98950.13;;;5.72
12430;BMP280;6279;42.192;24.326;2023-11-21T04:29:36;98945.88;;;5.71
12430;BMP280;6279;42.192;24.326;2023-11-21T04:32:02;98947.53;;;5.72
12430;BMP280;6279;42.192;24.326;2023-11-21T04:34:28;98948.22;;;5.74
12430;BMP280;6279;42.192;24.326;2023-11-21T04:36:56;98944.78;;;5.65
12430;BMP280;6279;42.192;24.326;2023-11-21T04:39:21;98945.78;;;5.73
12430;BMP280;6279;42.192;24.326;2023-11-21T04:41:47;98942.25;;;5.74
12430;BMP280;6279;42.192;24.326;2023-11-21T04:44:12;98947.38;;;5.65
12430;BMP280;6279;42.192;24.326;2023-11-21T04:46:37;98948.47;;;5.71
12430;BMP280;6279;42.192;24.326;2023-11-21T04:49:03;98948.31;;;5.82
12430;BMP280;6279;42.192;24.326;2023-11-21T04:51:33;98939.66;;;5.74
12430;BMP280;6279;42.192;24.326;2023-11-21T04:53:59;98950.53;;;5.59
12430;BMP280;6279;42.192;24.326;2023-11-21T04:56:24;98943.31;;;5.71
12430;BMP280;6279;42.192;24.326;2023-11-21T04:58:50;98943.59;;;5.78
12430;BMP280;6279;42.192;24.326;2023-11-21T05:01:15;98941.53;;;5.63
12430;BMP280;6279;42.192;24.326;2023-11-21T05:03:41;98939.38;;;5.68
12430;BMP280;6279;42.192;24.326;2023-11-21T05:06:09;98932.16;;;5.80
12430;BMP280;6279;42.192;24.326;2023-11-21T05:08:35;98944.53;;;5.77
12430;BMP280;6279;42.192;24.326;2023-11-21T05:11:02;98955.69;;;5.68
12430;BMP280;6279;42.192;24.326;2023-11-21T05:13:28;98956.63;;;5.76
12430;BMP280;6279;42.192;24.326;2023-11-21T05:15:56;98950.22;;;5.80
12430;BMP280;6279;42.192;24.326;2023-11-21T05:18:24;98947.53;;;5.72
12430;BMP280;6279;42.192;24.326;2023-11-21T05:20:56;98955.69;;;5.77
12430;BMP280;6279;42.192;24.326;2023-11-21T05:23:21;98955.63;;;5.87
12430;BMP280;6279;42.192;24.326;2023-11-21T05:25:47;98955.00;;;5.75
12430;BMP280;6279;42.192;24.326;2023-11-21T05:28:12;98960.56;;;5.71
12430;BMP280;6279;42.192;24.326;2023-11-21T05:30:38;98953.09;;;5.77
12430;BMP280;6279;42.192;24.326;2023-11-21T05:33:05;98957.97;;;5.80
12430;BMP280;6279;42.192;24.326;2023-11-21T05:35:30;98960.31;;;5.74
12430;BMP280;6279;42.192;24.326;2023-11-21T05:37:56;98960.94;;;5.85
12430;BMP280;6279;42.192;24.326;2023-11-21T05:40:21;98960.22;;;6.02
12430;BMP280;6279;42.192;24.326;2023-11-21T05:42:52;98967.28;;;6.00
12430;BMP280;6279;42.192;24.326;2023-11-21T05:45:17;98962.66;;;6.13
12430;BMP280;6279;42.192;24.326;2023-11-21T05:47:44;98948.41;;;6.35
12430;BMP280;6279;42.192;24.326;2023-11-21T05:50:12;98949.22;;;6.45
12430;BMP280;6279;42.192;24.326;2023-11-21T05:52:40;98949.00;;;6.56
12430;BMP280;6279;42.192;24.326;2023-11-21T05:55:07;98945.06;;;6.95
12430;BMP280;6279;42.192;24.326;2023-11-21T05:57:33;98940.19;;;7.61
12430;BMP280;6279;42.192;24.326;2023-11-21T06:00:03;98940.84;;;8.62
12430;BMP280;6279;42.192;24.326;2023-11-21T06:02:28;98936.00;;;9.55
12430;BMP280;6279;42.192;24.326;2023-11-21T06:04:53;98945.69;;;10.23
12430;BMP280;6279;42.192;24.326;2023-11-21T06:07:19;98950.81;;;10.47
12430;BMP280;6279;42.192;24.326;2023-11-21T06:09:44;98944.06;;;10.97
12430;BMP280;6279;42.192;24.326;2023-11-21T06:12:10;98944.72;;;11.51
12430;BMP280;6279;42.192;24.326;2023-11-21T06:14:35;98939.09;;;11.84
12430;BMP280;6279;42.192;24.326;2023-11-21T06:17:02;98939.94;;;11.99
12430;BMP280;6279;42.192;24.326;2023-11-21T06:19:27;98945.50;;;11.30
12430;BMP280;6279;42.192;24.326;2023-11-21T06:21:52;98956.13;;;10.61
12430;BMP280;6279;42.192;24.326;2023-11-21T06:24:18;98955.59;;;10.73
12430;BMP280;6279;42.192;24.326;2023-11-21T06:26:43;98956.75;;;11.00
12430;BMP280;6279;42.192;24.326;2023-11-21T06:29:09;98969.47;;;10.88
12430;BMP280;6279;42.192;24.326;2023-11-21T06:31:36;98954.97;;;11.23
12430;BMP280;6279;42.192;24.326;2023-11-21T06:34:01;98954.41;;;11.79
12430;BMP280;6279;42.192;24.326;2023-11-21T06:36:28;98950.00;;;11.80
12430;BMP280;6279;42.192;24.326;2023-11-21T06:38:53;98947.09;;;11.39
12430;BMP280;6279;42.192;24.326;2023-11-21T06:41:20;98943.56;;;11.24
12430;BMP280;6279;42.192;24.326;2023-11-21T06:43:46;98943.84;;;11.07
12430;BMP280;6279;42.192;24.326;2023-11-21T06:46:13;98944.91;;;10.60
12430;BMP280;6279;42.192;24.326;2023-11-21T06:48:44;98948.63;;;10.12
12430;BMP280;6279;42.192;24.326;2023-11-21T06:51:10;98950.41;;;10.20
12430;BMP280;6279;42.192;24.326;2023-11-21T06:53:36;98945.69;;;10.23
12430;BMP280;6279;42.192;24.326;2023-11-21T06:56:02;98958.56;;;9.93
12430;BMP280;6279;42.192;24.326;2023-11-21T06:58:28;98956.91;;;9.61
12430;BMP280;6279;42.192;24.326;2023-11-21T07:00:53;98962.56;;;9.64
12430;BMP280;6279;42.192;24.326;2023-11-21T07:03:18;98962.28;;;9.91
12430;BMP280;6279;42.192;24.326;2023-11-21T07:05:47;98964.69;;;10.00
12430;BMP280;6279;42.192;24.326;2023-11-21T07:08:12;98948.16;;;10.54
12430;BMP280;6279;42.192;24.326;2023-11-21T07:10:38;98957.28;;;11.70
12430;BMP280;6279;42.192;24.326;2023-11-21T07:13:04;98943.28;;;12.35
12430;BMP280;6279;42.192;24.326;2023-11-21T07:15:29;98947.41;;;12.44
12430;BMP280;6279;42.192;24.326;2023-11-21T07:17:55;98948.63;;;13.39
12430;BMP280;6279;42.192;24.326;2023-11-21T07:20:20;98945.13;;;15.21
12430;BMP280;6279;42.192;24.326;2023-11-21T07:22:46;98936.22;;;16.87
12430;BMP280;6279;42.192;24.326;2023-11-21T07:25:12;98934.09;;;18.05
12430;BMP280;6279;42.192;24.326;2023-11-21T07:27:37;98940.00;;;18.49
12430;BMP280;6279;42.192;24.326;2023-11-21T07:30:03;98929.66;;;19.64
12430;BMP280;6279;42.192;24.326;2023-11-21T07:32:31;98936.31;;;20.07
12430;BMP280;6279;42.192;24.326;2023-11-21T07:34:56;98931.97;;;21.18
12430;BMP280;6279;42.192;24.326;2023-11-21T07:37:23;98933.25;;;22.14
12430;BMP280;6279;42.192;24.326;2023-11-21T07:39:48;98927.03;;;22.94
12430;BMP280;6279;42.192;24.326;2023-11-21T07:42:14;98925.31;;;23.73
12430;BMP280;6279;42.192;24.326;2023-11-21T07:44:39;98916.75;;;24.22
12430;BMP280;6279;42.192;24.326;2023-11-21T07:47:04;98920.75;;;24.65
12430;BMP280;6279;42.192;24.326;2023-11-21T07:49:30;98925.78;;;25.08
12430;BMP280;6279;42.192;24.326;2023-11-21T07:51:55;98913.19;;;26.81
12430;BMP280;6279;42.192;24.326;2023-11-21T07:54:21;98927.38;;;27.43
12430;BMP280;6279;42.192;24.326;2023-11-21T07:56:47;98924.13;;;26.84
12430;BMP280;6279;42.192;24.326;2023-11-21T07:59:12;98918.53;;;26.85
12430;BMP280;6279;42.192;24.326;2023-11-21T08:01:39;98915.03;;;26.90
12430;BMP280;6279;42.192;24.326;2023-11-21T08:04:05;98924.53;;;27.77
12430;BMP280;6279;42.192;24.326;2023-11-21T08:06:31;98917.56;;;27.29
12430;BMP280;6279;42.192;24.326;2023-11-21T08:08:58;98924.53;;;27.25
12430;BMP280;6279;42.192;24.326;2023-11-21T08:11:23;98930.25;;;25.62
12430;BMP280;6279;42.192;24.326;2023-11-21T08:13:49;98922.03;;;24.18
12430;BMP280;6279;42.192;24.326;2023-11-21T08:16:14;98925.31;;;22.84
12430;BMP280;6279;42.192;24.326;2023-11-21T08:18:41;98922.94;;;21.85
12430;BMP280;6279;42.192;24.326;2023-11-21T08:21:06;98918.94;;;21.83
12430;BMP280;6279;42.192;24.326;2023-11-21T08:23:33;98932.03;;;21.46
12430;BMP280;6279;42.192;24.326;2023-11-21T08:25:59;98921.56;;;21.01
12430;BMP280;6279;42.192;24.326;2023-11-21T08:28:24;98922.22;;;21.08
12430;BMP280;6279;42.192;24.326;2023-11-21T08:30:51;98911.09;;;22.20
12430;BMP280;6279;42.192;24.326;2023-11-21T08:33:17;98900.09;;;22.81
12430;BMP280;6279;42.192;24.326;2023-11-21T08:35:43;98901.22;;;23.79
12430;BMP280;6279;42.192;24.326;2023-11-21T08:38:09;98892.31;;;24.25
12430;BMP280;6279;42.192;24.326;2023-11-21T08:40:35;98891.06;;;24.38
12430;BMP280;6279;42.192;24.326;2023-11-21T08:43:01;98892.16;;;25.72
12430;BMP280;6279;42.192;24.326;2023-11-21T08:45:30;98888.16;;;25.69
12430;BMP280;6279;42.192;24.326;2023-11-21T08:47:55;98889.75;;;25.41
12430;BMP280;6279;42.192;24.326;2023-11-21T08:50:21;98885.13;;;25.22
12430;BMP280;6279;42.192;24.326;2023-11-21T08:52:47;98880.28;;;25.04
12430;BMP280;6279;42.192;24.326;2023-11-21T08:55:14;98876.50;;;24.90
12430;BMP280;6279;42.192;24.326;2023-11-21T08:57:40;98878.94;;;24.51
12430;BMP280;6279;42.192;24.326;2023-11-21T09:00:10;98876.25;;;23.54
12430;BMP280;6279;42.192;24.326;2023-11-21T09:02:40;98882.88;;;21.50
12430;BMP280;6279;42.192;24.326;2023-11-21T09:05:07;98871.50;;;22.14
12430;BMP280;6279;42.192;24.326;2023-11-21T09:07:34;98866.72;;;22.48
12430;BMP280;6279;42.192;24.326;2023-11-21T09:09:59;98858.91;;;22.37
12430;BMP280;6279;42.192;24.326;2023-11-21T09:12:25;98862.06;;;21.14
12430;BMP280;6279;42.192;24.326;2023-11-21T09:14:50;98847.78;;;20.88
12430;BMP280;6279;42.192;24.326;2023-11-21T09:17:16;98846.75;;;20.39
12430;BMP280;6279;42.192;24.326;2023-11-21T09:19:42;98840.78;;;20.32
12430;BMP280;6279;42.192;24.326;2023-11-21T09:22:10;98831.59;;;20.46
12430;BMP280;6279;42.192;24.326;2023-11-21T09:24:36;98828.72;;;20.14
12430;BMP280;6279;42.192;24.326;2023-11-21T09:27:03;98819.34;;;19.73
12430;BMP280;6279;42.192;24.326;2023-11-21T09:29:28;98820.66;;;19.53
12430;BMP280;6279;42.192;24.326;2023-11-21T09:31:54;98818.59;;;19.54
12430;BMP280;6279;42.192;24.326;2023-11-21T09:34:23;98819.72;;;19.07
12430;BMP280;6279;42.192;24.326;2023-11-21T09:36:48;98816.59;;;18.99
12430;BMP280;6279;42.192;24.326;2023-11-21T09:39:14;98809.56;;;19.22
12430;BMP280;6279;42.192;24.326;2023-11-21T09:41:46;98808.88;;;19.15
12430;BMP280;6279;42.192;24.326;2023-11-21T09:44:17;98799.56;;;19.53
12430;BMP280;6279;42.192;24.326;2023-11-21T09:46:44;98792.50;;;20.59
12430;BMP280;6279;42.192;24.326;2023-11-21T09:49:13;98783.09;;;21.98
12430;BMP280;6279;42.192;24.326;2023-11-21T09:51:42;98775.09;;;22.99
12430;BMP280;6279;42.192;24.326;2023-11-21T09:54:10;98771.88;;;23.44
12430;BMP280;6279;42.192;24.326;2023-11-21T09:56:37;98777.19;;;22.71
12430;BMP280;6279;42.192;24.326;2023-11-21T09:59:03;98773.47;;;22.30
12430;BMP280;6279;42.192;24.326;2023-11-21T10:01:33;98770.03;;;21.44
12430;BMP280;6279;42.192;24.326;2023-11-21T10:04:00;98780.41;;;20.74
12430;BMP280;6279;42.192;24.326;2023-11-21T10:06:26;98772.38;;;20.97
12430;BMP280;6279;42.192;24.326;2023-11-21T10:08:53;98774.19;;;21.24
12430;BMP280;6279;42.192;24.326;2023-11-21T10:11:19;98767.97;;;21.46
12430;BMP280;6279;42.192;24.326;2023-11-21T10:13:46;98760.50;;;22.12
12430;BMP280;6279;42.192;24.326;2023-11-21T10:16:15;98753.38;;;22.76
12430;BMP280;6279;42.192;24.326;2023-11-21T10:18:43;98749.50;;;23.09
12430;BMP280;6279;42.192;24.326;2023-11-21T10:21:11;98738.94;;;22.46
12430;BMP280;6279;42.192;24.326;2023-11-21T10:23:36;98749.63;;;21.93
12430;BMP280;6279;42.192;24.326;2023-11-21T10:26:02;98747.31;;;21.80
12430;BMP280;6279;42.192;24.326;2023-11-21T10:28:29;98741.97;;;21.59
12430;BMP280;6279;42.192;24.326;2023-11-21T10:30:55;98741.75;;;19.62
12430;BMP280;6279;42.192;24.326;2023-11-21T10:33:27;98742.19;;;18.86
12430;BMP280;6279;42.192;24.326;2023-11-21T10:35:53;98739.81;;;18.20
12430;BMP280;6279;42.192;24.326;2023-11-21T10:38:21;98736.59;;;18.00
12430;BMP280;6279;42.192;24.326;2023-11-21T10:40:49;98738.50;;;17.70
12430;BMP280;6279;42.192;24.326;2023-11-21T10:43:16;98732.06;;;17.48
12430;BMP280;6279;42.192;24.326;2023-11-21T10:45:42;98724.28;;;17.59
12430;BMP280;6279;42.192;24.326;2023-11-21T10:48:13;98715.78;;;17.40
12430;BMP280;6279;42.192;24.326;2023-11-21T10:50:43;98707.47;;;17.19
12430;BMP280;6279;42.192;24.326;2023-11-21T10:53:09;98700.06;;;16.79
12430;BMP280;6279;42.192;24.326;2023-11-21T10:55:37;98687.72;;;16.19
12430;BMP280;6279;42.192;24.326;2023-11-21T10:58:03;98674.22;;;15.47
12430;BMP280;6279;42.192;24.326;2023-11-21T11:00:30;98663.41;;;15.12
12430;BMP280;6279;42.192;24.326;2023-11-21T11:02:56;98659.34;;;14.97
12430;BMP280;6279;42.192;24.326;2023-11-21T11:05:24;98652.09;;;14.92
12430;BMP280;6279;42.192;24.326;2023-11-21T11:08:02;98629.38;;;14.68
12430;BMP280;6279;42.192;24.326;2023-11-21T11:10:29;98618.50;;;14.70
12430;BMP280;6279;42.192;24.326;2023-11-21T11:12:55;98615.47;;;14.61
12430;BMP280;6279;42.192;24.326;2023-11-21T11:15:22;98624.28;;;14.22
12430;BMP280;6279;42.192;24.326;2023-11-21T11:17:48;98627.09;;;14.20
12430;BMP280;6279;42.192;24.326;2023-11-21T11:20:16;98614.25;;;14.31
12430;BMP280;6279;42.192;24.326;2023-11-21T11:22:44;98617.06;;;14.43
12430;BMP280;6279;42.192;24.326;2023-11-21T11:28:14;98619.47;;;14.63
12430;BMP280;6279;42.192;24.326;2023-11-21T11:33:43;98611.03;;;14.74
12430;BMP280;6279;42.192;24.326;2023-11-21T11:36:24;98589.06;;;14.81
12430;BMP280;6279;42.192;24.326;2023-11-21T11:38:51;98589.69;;;14.90
12430;BMP280;6279;42.192;24.326;2023-11-21T11:41:28;98586.03;;;15.16
12430;BMP280;6279;42.192;24.326;2023-11-21T11:43:56;98591.25;;;15.16
12430;BMP280;6279;42.192;24.326;2023-11-21T11:46:40;98590.47;;;14.96
12430;BMP280;6279;42.192;24.326;2023-11-21T11:49:07;98588.47;;;14.86
12430;BMP280;6279;42.192;24.326;2023-11-21T11:51:33;98609.03;;;14.76
12430;BMP280;6279;42.192;24.326;2023-11-21T11:54:01;98588.88;;;14.83
12430;BMP280;6279;42.192;24.326;2023-11-21T11:56:33;98604.59;;;15.08
12430;BMP280;6279;42.192;24.326;2023-11-21T11:59:04;98607.78;;;15.23
12430;BMP280;6279;42.192;24.326;2023-11-21T12:01:32;98608.16;;;15.39
12430;BMP280;6279;42.192;24.326;2023-11-21T12:07:02;98625.00;;;15.62
12430;BMP280;6279;42.192;24.326;2023-11-21T12:09:28;98628.81;;;15.66
12430;BMP280;6279;42.192;24.326;2023-11-21T12:11:55;98624.69;;;15.82
12430;BMP280;6279;42.192;24.326;2023-11-21T12:14:24;98620.78;;;16.10
12430;BMP280;6279;42.192;24.326;2023-11-21T12:16:50;98615.00;;;16.26
12430;BMP280;6279;42.192;24.326;2023-11-21T12:19:17;98607.69;;;16.34
12430;BMP280;6279;42.192;24.326;2023-11-21T12:21:43;98610.31;;;16.34
12430;BMP280;6279;42.192;24.326;2023-11-21T12:24:09;98586.78;;;16.22
12430;BMP280;6279;42.192;24.326;2023-11-21T12:26:37;98581.69;;;15.96
12430;BMP280;6279;42.192;24.326;2023-11-21T12:29:03;98576.91;;;15.80
12430;BMP280;6279;42.192;24.326;2023-11-21T12:31:30;98582.22;;;15.68
12430;BMP280;6279;42.192;24.326;2023-11-21T12:33:56;98566.09;;;15.64
12430;BMP280;6279;42.192;24.326;2023-11-21T12:36:23;98565.41;;;15.38
12430;BMP280;6279;42.192;24.326;2023-11-21T12:38:48;98558.59;;;15.25
12430;BMP280;6279;42.192;24.326;2023-11-21T12:41:15;98564.66;;;15.19
12430;BMP280;6279;42.192;24.326;2023-11-21T12:43:42;98573.53;;;15.24
12430;BMP280;6279;42.192;24.326;2023-11-21T12:46:10;98578.97;;;15.23
12430;BMP280;6279;42.192;24.326;2023-11-21T12:48:42;98585.22;;;15.15
12430;BMP280;6279;42.192;24.326;2023-11-21T12:51:13;98580.34;;;15.32
12430;BMP280;6279;42.192;24.326;2023-11-21T12:53:44;98581.94;;;15.33
12430;BMP280;6279;42.192;24.326;2023-11-21T12:56:10;98577.50;;;15.33
12430;BMP280;6279;42.192;24.326;2023-11-21T12:58:40;98582.75;;;15.39
12430;BMP280;6279;42.192;24.326;2023-11-21T13:01:10;98561.50;;;15.60
12430;BMP280;6279;42.192;24.326;2023-11-21T13:03:37;98563.63;;;15.76
12430;BMP280;6279;42.192;24.326;2023-11-21T13:06:05;98576.31;;;15.79
12430;BMP280;6279;42.192;24.326;2023-11-21T13:08:33;98579.75;;;15.73
12430;BMP280;6279;42.192;24.326;2023-11-21T13:10:58;98566.09;;;15.64
12430;BMP280;6279;42.192;24.326;2023-11-21T13:13:25;98575.41;;;15.54
12430;BMP280;6279;42.192;24.326;2023-11-21T13:15:53;98573.38;;;15.62
12430;BMP280;6279;42.192;24.326;2023-11-21T13:18:25;98573.31;;;15.75
12430;BMP280;6279;42.192;24.326;2023-11-21T13:20:58;98577.34;;;15.71
12430;BMP280;6279;42.192;24.326;2023-11-21T13:23:25;98575.25;;;15.86
12430;BMP280;6279;42.192;24.326;2023-11-21T13:25:51;98572.47;;;15.81
12430;BMP280;6279;42.192;24.326;2023-11-21T13:28:17;98577.69;;;15.87
12430;BMP280;6279;42.192;24.326;2023-11-21T13:30:47;98569.66;;;15.82
12430;BMP280;6279;42.192;24.326;2023-11-21T13:33:13;98562.19;;;15.79
12430;BMP280;6279;42.192;24.326;2023-11-21T13:35:43;98556.22;;;15.66
12430;BMP280;6279;42.192;24.326;2023-11-21T13:38:14;98556.00;;;15.68
12430;BMP280;6279;42.192;24.326;2023-11-21T13:40:47;98558.75;;;15.36
12430;BMP280;6279;42.192;24.326;2023-11-21T13:43:17;98563.03;;;15.18
12430;BMP280;6279;42.192;24.326;2023-11-21T13:45:48;98568.06;;;15.26
12430;BMP280;6279;42.192;24.326;2023-11-21T13:48:23;98576.75;;;15.20
12430;BMP280;6279;42.192;24.326;2023-11-21T13:50:56;98571.91;;;15.17
12430;BMP280;6279;42.192;24.326;2023-11-21T13:53:33;98572.72;;;14.98
12430;BMP280;6279;42.192;24.326;2023-11-21T13:56:01;98572.72;;;14.98
12430;BMP280;6279;42.192;24.326;2023-11-21T13:58:27;98579.03;;;14.85
12430;BMP280;6279;42.192;24.326;2023-11-21T14:01:15;98566.09;;;14.83
12430;BMP280;6279;42.192;24.326;2023-11-21T14:03:50;98566.34;;;14.69
12430;BMP280;6279;42.192;24.326;2023-11-21T14:06:22;98576.00;;;14.69
12430;BMP280;6279;42.192;24.326;2023-11-21T14:08:53;98582.06;;;14.69
12430;BMP280;6279;42.192;24.326;2023-11-21T14:11:21;98577.41;;;14.77
12430;BMP280;6279;42.192;24.326;2023-11-21T14:13:47;98572.59;;;14.55
12430;BMP280;6279;42.192;24.326;2023-11-21T14:16:14;98563.13;;;14.35
12430;BMP280;6279;42.192;24.326;2023-11-21T14:18:39;98566.34;;;14.18
12430;BMP280;6279;42.192;24.326;2023-11-21T14:21:18;98569.97;;;14.17
12430;BMP280;6279;42.192;24.326;2023-11-21T14:23:43;98569.97;;;14.24